createdAt,value
2022-08-14T00:00:20.115Z,19.10
2022-08-14T00:02:48.266Z,19.10
2022-08-14T00:05:17.751Z,19.10
2022-08-14T00:07:46.467Z,19.10
2022-08-14T00:10:52.121Z,19.10
2022-08-14T00:13:10.756Z,19.00
2022-08-14T00:15:44.732Z,19.00
2022-08-14T00:18:31.006Z,19.00
2022-08-14T00:21:11.350Z,19.00
2022-08-14T00:23:40.066Z,19.00
2022-08-14T00:26:08.470Z,19.00
2022-08-14T00:28:50.568Z,19.00
2022-08-14T00:31:19.429Z,18.90
2022-08-14T00:33:51.683Z,18.90
2022-08-14T00:36:35.514Z,18.90
2022-08-14T00:39:09.468Z,18.90
2022-08-14T00:41:39.155Z,18.90
2022-08-14T00:44:08.107Z,18.90
2022-08-14T00:46:37.954Z,18.90
2022-08-14T00:49:06.714Z,18.80
2022-08-14T00:51:38.334Z,18.80
2022-08-14T00:54:20.949Z,18.80
2022-08-14T00:56:50.815Z,18.90
2022-08-14T00:59:28.913Z,18.80
2022-08-14T01:01:58.554Z,18.80
2022-08-14T01:04:52.133Z,18.80
2022-08-14T01:07:23.057Z,18.80
2022-08-14T01:09:52.325Z,18.80
2022-08-14T01:12:27.158Z,18.80
2022-08-14T01:14:59.137Z,18.70
2022-08-14T01:17:49.853Z,18.70
2022-08-14T01:20:39.479Z,18.60
2022-08-14T01:23:15.799Z,18.60
2022-08-14T01:25:48.206Z,18.60
2022-08-14T01:28:46.248Z,18.60
2022-08-14T01:31:12.626Z,18.50
2022-08-14T01:34:00.473Z,18.60
2022-08-14T01:36:39.274Z,18.60
2022-08-14T01:39:14.375Z,18.70
2022-08-14T01:41:44.949Z,18.70
2022-08-14T01:44:33.210Z,18.60
2022-08-14T01:47:11.709Z,18.60
2022-08-14T01:49:46.232Z,18.60
2022-08-14T01:52:33.958Z,18.50
2022-08-14T01:55:19.405Z,18.60
2022-08-14T01:58:00.739Z,18.60
2022-08-14T02:00:39.190Z,18.50
2022-08-14T02:03:07.656Z,18.50
2022-08-14T02:05:39.193Z,18.50
2022-08-14T02:08:11.160Z,18.60
2022-08-14T02:10:46.972Z,18.50
2022-08-14T02:13:17.351Z,18.50
2022-08-14T02:15:50.182Z,18.50
2022-08-14T02:18:18.665Z,18.50
2022-08-14T02:20:49.098Z,18.50
2022-08-14T02:23:29.183Z,18.50
2022-08-14T02:26:24.797Z,18.40
2022-08-14T02:28:57.391Z,18.40
2022-08-14T02:31:42.560Z,18.40
2022-08-14T02:34:14.599Z,18.40
2022-08-14T02:37:05.096Z,18.50
2022-08-14T02:39:40.274Z,18.50
2022-08-14T02:42:13.608Z,18.40
2022-08-14T02:44:43.095Z,18.40
2022-08-14T02:47:20.575Z,18.40
2022-08-14T02:49:54.695Z,18.40
2022-08-14T02:52:56.370Z,18.40
2022-08-14T02:55:11.471Z,18.40
2022-08-14T02:57:43.869Z,18.40
2022-08-14T03:00:18.577Z,18.40
2022-08-14T03:02:56.727Z,18.40
2022-08-14T03:05:32.848Z,18.40
2022-08-14T03:08:15.318Z,18.40
2022-08-14T03:10:48.571Z,18.40
2022-08-14T03:13:21.559Z,18.40
2022-08-14T03:15:56.200Z,18.40
2022-08-14T03:18:31.166Z,18.40
2022-08-14T03:21:05.731Z,18.40
2022-08-14T03:23:38.719Z,18.40
2022-08-14T03:26:12.957Z,18.40
2022-08-14T03:28:47.750Z,18.30
2022-08-14T03:31:17.008Z,18.30
2022-08-14T03:33:51.831Z,18.30
2022-08-14T03:37:38.595Z,18.20
2022-08-14T03:39:22.219Z,18.20
2022-08-14T03:41:53.435Z,18.30
2022-08-14T03:45:25.362Z,18.20
2022-08-14T03:47:11.732Z,18.30
2022-08-14T03:49:42.420Z,18.20
2022-08-14T03:52:37.746Z,18.20
2022-08-14T03:55:00.634Z,18.20
2022-08-14T03:57:32.961Z,18.20
2022-08-14T04:00:13.464Z,18.20
2022-08-14T04:02:57.448Z,18.20
2022-08-14T04:05:27.294Z,18.20
2022-08-14T04:08:08.763Z,18.20
2022-08-14T04:10:43.362Z,18.20
2022-08-14T04:13:13.129Z,18.20
2022-08-14T04:15:56.748Z,18.20
2022-08-14T04:18:30.898Z,18.20
2022-08-14T04:20:59.646Z,18.20
2022-08-14T04:23:29.748Z,18.20
2022-08-14T04:26:01.951Z,18.20
2022-08-14T04:29:02.197Z,18.30
2022-08-14T04:32:58.211Z,18.30
2022-08-14T04:34:20.562Z,18.20
2022-08-14T04:37:10.751Z,18.10
2022-08-14T04:40:05.016Z,18.10
2022-08-14T04:42:58.866Z,18.10
2022-08-14T04:45:30.878Z,18.20
2022-08-14T04:48:39.320Z,18.20
2022-08-14T04:51:08.424Z,18.20
2022-08-14T04:53:42.935Z,18.10
2022-08-14T04:56:33.708Z,18.10
2022-08-14T04:59:10.372Z,18.10
2022-08-14T05:01:47.921Z,18.10
2022-08-14T05:04:22.114Z,18.10
2022-08-14T05:06:53.768Z,18.10
2022-08-14T05:09:23.842Z,18.10
2022-08-14T05:11:53.828Z,18.00
2022-08-14T05:14:45.249Z,18.00
2022-08-14T05:17:12.499Z,18.00
2022-08-14T05:19:44.862Z,18.10
2022-08-14T05:22:28.734Z,18.10
2022-08-14T05:24:56.786Z,18.10
2022-08-14T05:27:32.010Z,18.00
2022-08-14T05:30:07.294Z,18.10
2022-08-14T05:32:36.484Z,18.20
2022-08-14T05:35:05.248Z,18.30
2022-08-14T05:37:36.569Z,18.30
2022-08-14T05:40:05.001Z,18.30
2022-08-14T05:42:34.657Z,18.30
2022-08-14T05:45:04.047Z,18.30
2022-08-14T05:47:38.906Z,18.30
2022-08-14T05:50:17.054Z,18.40
2022-08-14T05:52:46.351Z,18.30
2022-08-14T05:55:14.479Z,18.30
2022-08-14T05:57:46.907Z,18.30
2022-08-14T06:00:28.416Z,18.30
2022-08-14T06:03:06.784Z,18.40
2022-08-14T06:05:38.716Z,18.50
2022-08-14T06:08:31.373Z,18.50
2022-08-14T06:11:08.775Z,18.50
2022-08-14T06:13:44.472Z,18.60
2022-08-14T06:16:18.772Z,18.70
2022-08-14T06:18:52.494Z,18.80
2022-08-14T06:21:24.648Z,18.90
2022-08-14T06:23:54.048Z,19.00
2022-08-14T06:26:22.356Z,19.20
2022-08-14T06:28:52.460Z,19.30
2022-08-14T06:31:24.301Z,19.40
2022-08-14T06:35:10.186Z,19.50
2022-08-14T06:36:40.868Z,19.50
2022-08-14T06:39:10.322Z,19.40
2022-08-14T06:41:58.471Z,19.30
2022-08-14T06:44:30.531Z,19.20
2022-08-14T06:47:03.855Z,19.10
2022-08-14T06:49:43.325Z,19.00
2022-08-14T06:52:16.995Z,19.00
2022-08-14T06:54:45.978Z,19.00
2022-08-14T06:57:14.205Z,19.10
2022-08-14T06:59:43.219Z,19.10
2022-08-14T07:02:30.157Z,19.00
2022-08-14T07:05:20.844Z,19.00
2022-08-14T07:07:51.669Z,19.00
2022-08-14T07:10:25.324Z,19.10
2022-08-14T07:13:01.754Z,19.20
2022-08-14T07:15:33.919Z,19.40
2022-08-14T07:18:04.905Z,19.60
2022-08-14T07:20:37.582Z,19.80
2022-08-14T07:23:09.167Z,20.00
2022-08-14T07:25:39.999Z,20.30
2022-08-14T07:28:20.911Z,20.30
2022-08-14T07:30:56.555Z,20.30
2022-08-14T07:33:30.052Z,20.40
2022-08-14T07:36:02.318Z,20.40
2022-08-14T07:38:37.406Z,20.40
2022-08-14T07:41:11.845Z,20.40
2022-08-14T07:43:47.450Z,20.40
2022-08-14T07:46:29.227Z,20.40
2022-08-14T07:48:57.737Z,20.30
2022-08-14T07:51:26.136Z,20.30
2022-08-14T07:54:03.496Z,20.30
2022-08-14T07:56:46.592Z,20.30
2022-08-14T07:59:41.308Z,20.50
2022-08-14T08:02:18.546Z,20.60
2022-08-14T08:04:49.736Z,20.90
2022-08-14T08:07:21.327Z,21.20
2022-08-14T08:09:53.343Z,21.40
2022-08-14T08:12:28.031Z,21.60
2022-08-14T08:15:05.853Z,21.60
2022-08-14T08:17:42.535Z,21.60
2022-08-14T08:20:27.426Z,21.60
2022-08-14T08:23:00.437Z,21.50
2022-08-14T08:25:39.838Z,21.60
2022-08-14T08:28:19.716Z,21.70
2022-08-14T08:31:02.155Z,21.90
2022-08-14T08:33:36.782Z,22.30
2022-08-14T08:36:08.398Z,22.50
2022-08-14T08:39:18.146Z,22.80
2022-08-14T08:41:39.145Z,22.90
2022-08-14T08:44:17.514Z,23.10
2022-08-14T08:47:00.316Z,23.10
2022-08-14T08:49:48.321Z,23.10
2022-08-14T08:52:25.257Z,23.30
2022-08-14T08:55:01.079Z,23.40
2022-08-14T08:57:37.610Z,23.60
2022-08-14T09:00:25.298Z,23.70
2022-08-14T09:02:59.671Z,23.60
2022-08-14T09:05:27.770Z,23.40
2022-08-14T09:07:56.443Z,23.20
2022-08-14T09:10:25.946Z,23.10
2022-08-14T09:12:56.568Z,23.10
2022-08-14T09:15:24.650Z,23.00
2022-08-14T09:17:54.599Z,22.90
2022-08-14T09:20:26.296Z,22.90
2022-08-14T09:22:59.305Z,22.90
2022-08-14T09:25:59.955Z,22.80
2022-08-14T09:28:16.849Z,22.60
2022-08-14T09:30:54.554Z,22.40
2022-08-14T09:33:30.153Z,22.10
2022-08-14T09:36:16.525Z,21.80
2022-08-14T09:38:55.908Z,21.50
2022-08-14T09:42:17.315Z,21.40
2022-08-14T09:44:42.882Z,21.10
2022-08-14T09:47:16.165Z,20.90
2022-08-14T09:49:52.233Z,20.80
2022-08-14T09:52:32.893Z,20.50
2022-08-14T09:55:03.665Z,20.30
2022-08-14T09:57:31.998Z,20.20
2022-08-14T10:00:12.039Z,20.00
2022-08-14T10:03:05.845Z,20.00
2022-08-14T10:05:39.081Z,19.80
2022-08-14T10:08:25.442Z,19.70
2022-08-14T10:10:57.335Z,19.70
2022-08-14T10:13:52.718Z,19.80
2022-08-14T10:16:21.787Z,19.80
2022-08-14T10:19:05.680Z,19.90
2022-08-14T10:21:38.752Z,19.90
2022-08-14T10:24:31.307Z,20.20
2022-08-14T10:27:05.835Z,20.20
2022-08-14T10:29:35.344Z,20.30
2022-08-14T10:32:18.256Z,20.50
2022-08-14T10:35:03.446Z,20.60
2022-08-14T10:37:45.315Z,20.70
2022-08-14T10:40:43.319Z,20.70
2022-08-14T10:43:16.746Z,20.70
2022-08-14T10:46:03.390Z,20.60
2022-08-14T10:48:45.966Z,20.50
2022-08-14T10:51:24.494Z,20.60
2022-08-14T10:53:56.903Z,20.80
2022-08-14T10:56:35.082Z,20.90
2022-08-14T10:59:05.017Z,21.20
2022-08-14T11:01:38.485Z,21.30
2022-08-14T11:04:25.055Z,21.10
2022-08-14T11:06:54.975Z,21.20
2022-08-14T11:09:26.292Z,21.40
2022-08-14T11:12:33.795Z,21.40
2022-08-14T11:14:59.765Z,21.40
2022-08-14T11:17:36.455Z,21.30
2022-08-14T11:20:06.360Z,21.20
2022-08-14T11:22:52.813Z,21.10
2022-08-14T11:25:43.249Z,21.10
2022-08-14T11:28:14.844Z,21.10
2022-08-14T11:30:53.636Z,21.30
2022-08-14T11:33:23.791Z,21.60
2022-08-14T11:35:52.000Z,21.90
2022-08-14T11:38:22.561Z,22.20
2022-08-14T11:40:50.629Z,22.50
2022-08-14T11:43:29.263Z,22.80
2022-08-14T11:45:58.087Z,23.00
2022-08-14T11:49:03.432Z,23.40
2022-08-14T11:51:24.019Z,23.60
2022-08-14T11:54:13.648Z,23.70
2022-08-14T11:56:51.659Z,23.90
2022-08-14T11:59:26.507Z,24.30
2022-08-14T12:02:39.113Z,24.40
2022-08-14T12:04:59.816Z,24.30
2022-08-14T12:07:27.859Z,24.20
2022-08-14T12:09:57.646Z,24.00
2022-08-14T12:12:35.065Z,23.90
2022-08-14T12:15:09.125Z,23.80
2022-08-14T12:17:49.441Z,23.30
2022-08-14T12:20:29.944Z,22.80
2022-08-14T12:23:07.934Z,22.80
2022-08-14T12:25:36.969Z,22.90
2022-08-14T12:28:33.335Z,23.20
2022-08-14T12:30:59.969Z,23.50
2022-08-14T12:33:33.210Z,23.50
2022-08-14T12:36:04.468Z,23.70
2022-08-14T12:38:45.075Z,24.00
2022-08-14T12:41:21.209Z,24.40
2022-08-14T12:43:51.953Z,24.80
2022-08-14T12:46:35.118Z,25.20
2022-08-14T12:49:10.113Z,25.20
2022-08-14T12:51:38.965Z,25.40
2022-08-14T12:54:27.563Z,25.90
2022-08-14T12:57:06.851Z,26.00
2022-08-14T12:59:42.806Z,26.10
2022-08-14T13:02:26.487Z,25.90
2022-08-14T13:04:56.104Z,26.00
2022-08-14T13:07:32.721Z,25.90
2022-08-14T13:10:46.542Z,25.70
2022-08-14T13:13:12.689Z,25.30
2022-08-14T13:15:41.000Z,25.20
2022-08-14T13:18:10.863Z,25.30
2022-08-14T13:20:44.169Z,25.10
2022-08-14T13:23:28.564Z,24.90
2022-08-14T13:26:00.996Z,24.50
2022-08-14T13:28:32.950Z,24.40
2022-08-14T13:31:11.113Z,24.40
2022-08-14T13:33:41.174Z,24.50
2022-08-14T13:36:11.095Z,24.50
2022-08-14T13:38:54.043Z,24.60
2022-08-14T13:41:31.878Z,24.50
2022-08-14T13:44:05.025Z,24.40
2022-08-14T13:46:36.469Z,24.50
2022-08-14T13:49:08.242Z,24.40
2022-08-14T13:51:37.507Z,24.40
2022-08-14T13:54:10.898Z,24.30
2022-08-14T13:56:40.210Z,24.30
2022-08-14T13:59:08.669Z,24.30
2022-08-14T14:01:42.978Z,24.20
2022-08-14T14:04:19.104Z,24.10
2022-08-14T14:06:49.398Z,24.10
2022-08-14T14:09:32.577Z,24.00
2022-08-14T14:12:37.431Z,23.90
2022-08-14T14:14:56.914Z,23.80
2022-08-14T14:17:31.410Z,23.70
2022-08-14T14:19:59.792Z,23.70
2022-08-14T14:23:01.176Z,23.70
2022-08-14T14:25:19.525Z,23.40
2022-08-14T14:27:53.303Z,23.30
2022-08-14T14:30:53.496Z,23.10
2022-08-14T14:33:42.536Z,23.10
2022-08-14T14:36:05.005Z,23.00
2022-08-14T14:38:33.936Z,22.90
2022-08-14T14:41:05.547Z,22.90
2022-08-14T14:43:36.002Z,22.90
2022-08-14T14:51:57.661Z,22.90
2022-08-14T14:54:31.048Z,22.80
2022-08-14T14:57:02.426Z,22.80
2022-08-14T14:59:35.949Z,22.70
2022-08-14T15:02:09.256Z,22.80
2022-08-14T15:04:43.789Z,22.70
2022-08-14T15:07:13.204Z,22.70
2022-08-14T15:09:44.805Z,22.60
2022-08-14T15:12:55.524Z,22.50
2022-08-14T15:15:09.029Z,22.50
2022-08-14T15:17:41.602Z,22.50
2022-08-14T15:20:17.186Z,22.50
2022-08-14T15:22:58.875Z,22.40
2022-08-14T15:25:32.214Z,22.40
2022-08-14T15:28:01.203Z,22.30
2022-08-14T15:30:32.447Z,22.30
2022-08-14T15:33:00.904Z,22.30
2022-08-14T15:35:29.674Z,22.20
2022-08-14T15:38:08.797Z,22.10
2022-08-14T15:40:41.063Z,21.90
2022-08-14T15:43:11.200Z,21.80
2022-08-14T15:45:41.472Z,21.80
2022-08-14T15:48:14.039Z,21.80
2022-08-14T15:50:50.758Z,21.70
2022-08-14T15:53:22.630Z,21.70
2022-08-14T15:55:55.079Z,21.70
2022-08-14T15:58:24.262Z,21.60
2022-08-14T16:01:12.748Z,21.60
2022-08-14T16:03:42.472Z,21.60
2022-08-14T16:06:18.167Z,21.40
2022-08-14T16:08:50.036Z,21.40
2022-08-14T16:11:18.831Z,21.30
2022-08-14T16:13:47.783Z,21.30
2022-08-14T16:16:47.491Z,21.30
2022-08-14T16:19:13.352Z,21.20
2022-08-14T16:22:02.078Z,21.20
2022-08-14T16:24:31.470Z,21.20
2022-08-14T16:27:00.821Z,21.20
2022-08-14T16:29:34.587Z,21.20
2022-08-14T16:32:32.643Z,21.10
2022-08-14T16:34:54.896Z,21.10
2022-08-14T16:37:31.166Z,21.10
2022-08-14T16:40:03.679Z,21.10
2022-08-14T16:43:02.399Z,21.10
2022-08-14T16:45:24.038Z,21.10
2022-08-14T16:47:52.082Z,21.00
2022-08-14T16:50:43.587Z,21.00
2022-08-14T16:53:09.705Z,20.90
2022-08-14T16:55:51.388Z,20.80
2022-08-14T16:58:27.104Z,20.70
2022-08-14T17:01:22.682Z,20.70
2022-08-14T17:03:58.515Z,20.60
2022-08-14T17:06:36.670Z,20.50
2022-08-14T17:09:05.781Z,20.40
2022-08-14T17:11:34.340Z,20.40
2022-08-14T17:14:10.140Z,20.30
2022-08-14T17:16:38.948Z,20.30
2022-08-14T17:19:13.794Z,20.20
2022-08-14T17:21:47.065Z,20.10
2022-08-14T17:24:57.533Z,20.00
2022-08-14T17:27:07.644Z,19.90
2022-08-14T17:29:44.893Z,19.90
2022-08-14T17:32:44.311Z,19.90
2022-08-14T17:35:25.934Z,19.90
2022-08-14T17:37:55.577Z,19.80
2022-08-14T17:40:29.774Z,19.70
2022-08-14T17:43:01.848Z,19.80
2022-08-14T17:45:41.320Z,19.70
2022-08-14T17:49:14.594Z,19.60
2022-08-14T17:51:23.681Z,19.60
2022-08-14T17:54:01.711Z,19.50
2022-08-14T17:56:32.824Z,19.50
2022-08-14T17:59:04.198Z,19.50
2022-08-14T18:01:38.711Z,19.40
2022-08-14T18:04:28.569Z,19.40
2022-08-14T18:07:16.469Z,19.40
2022-08-14T18:09:57.045Z,19.30
2022-08-14T18:12:31.782Z,19.40
2022-08-14T18:15:14.459Z,19.30
2022-08-14T18:17:52.703Z,19.30
2022-08-14T18:21:41.536Z,19.30
2022-08-14T18:23:14.259Z,19.20
2022-08-14T18:25:46.838Z,19.20
2022-08-14T18:28:18.254Z,19.20
2022-08-14T18:31:44.133Z,19.10
2022-08-14T18:34:30.730Z,19.10
2022-08-14T18:37:11.051Z,19.00
2022-08-14T18:40:02.250Z,19.00
2022-08-14T18:42:32.676Z,19.00
2022-08-14T18:45:12.802Z,18.90
2022-08-14T18:50:32.829Z,18.80
2022-08-14T18:53:06.961Z,18.80
2022-08-14T18:55:35.175Z,18.80
2022-08-14T18:58:25.199Z,18.80
2022-08-14T19:00:58.658Z,18.70
2022-08-14T19:03:37.152Z,18.70
2022-08-14T19:06:06.233Z,18.60
2022-08-14T19:08:45.768Z,18.50
2022-08-14T19:11:32.871Z,18.50
2022-08-14T19:14:04.807Z,18.50
2022-08-14T19:16:35.292Z,18.50
2022-08-14T19:19:04.780Z,18.50
2022-08-14T19:21:33.889Z,18.50
2022-08-14T19:24:29.979Z,18.50
2022-08-14T19:27:19.002Z,18.40
2022-08-14T19:29:51.353Z,18.50
2022-08-14T19:32:32.694Z,18.50
2022-08-14T19:35:16.491Z,18.40
2022-08-14T19:37:55.410Z,18.30
2022-08-14T19:40:34.524Z,18.30
2022-08-14T19:43:08.933Z,18.30
2022-08-14T19:45:38.982Z,18.30
2022-08-14T19:48:14.732Z,18.30
2022-08-14T19:50:46.964Z,18.30
2022-08-14T19:53:17.680Z,18.20
2022-08-14T19:56:04.765Z,18.30
2022-08-14T19:58:55.158Z,18.20
2022-08-14T20:01:27.468Z,18.30
2022-08-14T20:04:22.871Z,18.20
2022-08-14T20:07:01.833Z,18.30
2022-08-14T20:11:08.346Z,18.30
2022-08-14T20:12:35.466Z,18.30
2022-08-14T20:15:08.743Z,18.20
2022-08-14T20:17:40.660Z,18.20
2022-08-14T20:20:30.667Z,18.20
2022-08-14T20:23:11.273Z,18.20
2022-08-14T20:25:57.270Z,18.20
2022-08-14T20:28:35.456Z,18.20
2022-08-14T20:31:14.383Z,18.10
2022-08-14T20:34:06.578Z,18.10
2022-08-14T20:36:37.964Z,18.10
2022-08-14T20:39:15.429Z,18.00
2022-08-14T20:41:51.200Z,18.10
2022-08-14T20:44:39.691Z,18.10
2022-08-14T20:47:08.191Z,18.00
2022-08-14T20:49:37.646Z,18.10
2022-08-14T20:52:18.975Z,18.10
2022-08-14T20:54:51.473Z,18.10
2022-08-14T20:57:20.150Z,18.00
2022-08-14T20:59:53.249Z,18.00
2022-08-14T21:02:46.159Z,18.00
2022-08-14T21:05:21.704Z,18.00
2022-08-14T21:07:51.854Z,18.00
2022-08-14T21:10:36.278Z,18.00
2022-08-14T21:13:26.442Z,17.90
2022-08-14T21:15:58.020Z,17.90
2022-08-14T21:18:28.680Z,17.90
2022-08-14T21:20:58.537Z,17.90
2022-08-14T21:23:32.503Z,17.80
2022-08-14T21:26:03.644Z,17.80
2022-08-14T21:28:35.056Z,17.80
2022-08-14T21:31:04.798Z,17.80
2022-08-14T21:33:34.798Z,17.80
2022-08-14T21:36:08.031Z,17.80
2022-08-14T21:38:38.959Z,17.80
2022-08-14T21:41:41.210Z,17.80
2022-08-14T21:44:17.595Z,17.70
2022-08-14T21:46:54.851Z,17.70
2022-08-14T21:49:34.138Z,17.70
2022-08-14T21:52:49.847Z,17.60
2022-08-14T21:54:59.032Z,17.60
2022-08-14T21:57:53.460Z,17.50
2022-08-14T22:00:35.532Z,17.50
2022-08-14T22:03:06.000Z,17.50
2022-08-14T22:05:34.153Z,17.50
2022-08-14T22:08:07.168Z,17.60
2022-08-14T22:10:37.453Z,17.50
2022-08-14T22:13:05.577Z,17.50
2022-08-14T22:15:33.603Z,17.40
2022-08-14T22:18:04.817Z,17.50
2022-08-14T22:20:33.424Z,17.50
2022-08-14T22:23:04.565Z,17.50
2022-08-14T22:25:34.499Z,17.50
2022-08-14T22:28:11.311Z,17.40
2022-08-14T22:30:39.564Z,17.40
2022-08-14T22:33:09.908Z,17.40
2022-08-14T22:35:41.614Z,17.40
2022-08-14T22:38:35.503Z,17.40
2022-08-14T22:41:25.256Z,17.40
2022-08-14T22:43:49.245Z,17.30
2022-08-14T22:46:20.605Z,17.30
2022-08-14T22:48:49.615Z,17.30
2022-08-14T22:51:20.632Z,17.20
2022-08-14T22:53:51.695Z,17.20
2022-08-14T22:56:29.186Z,17.20
2022-08-14T22:59:02.631Z,17.10
2022-08-14T23:01:55.461Z,17.10
2022-08-14T23:04:35.080Z,17.10
2022-08-14T23:07:14.718Z,17.00
2022-08-14T23:09:56.894Z,17.10
2022-08-14T23:12:30.234Z,17.10
2022-08-14T23:15:00.378Z,17.00
2022-08-14T23:17:39.419Z,17.00
2022-08-14T23:20:18.958Z,16.90
2022-08-14T23:22:52.628Z,16.90
2022-08-14T23:25:57.413Z,16.90
2022-08-14T23:28:32.932Z,16.80
2022-08-14T23:31:05.583Z,16.90
2022-08-14T23:33:35.163Z,16.90
2022-08-14T23:36:32.869Z,16.80
2022-08-14T23:38:54.820Z,16.80
2022-08-14T23:41:24.360Z,16.80
2022-08-14T23:43:57.388Z,16.80
2022-08-14T23:46:34.794Z,16.80
2022-08-14T23:49:04.364Z,16.80
2022-08-14T23:51:36.435Z,16.80
2022-08-14T23:54:48.408Z,16.70
2022-08-14T23:57:03.024Z,16.80
2022-08-14T23:59:32.174Z,16.60
